Nearby METAR Reports

 

KPBH - Phillips, Wisconsin, USA
Distance from station: SE 13mi, 21km
Updated: 06/03/2020 9:15pm
Clear
Clear
 Wind from calm
Wind: Calm
Temperature: 63°F , 17°C
Dew Point: 46°F , 8°C
Humidity: 56%
Barometer: 29.79 inHg , 1008.8 hPa
Clouds: Clear
Visibility: 10 miles , 16 km
2020/06/04 02:15 KPBH 040215Z AUTO 00000KT 10SM CLR 17/08 A2979 RMK AO2 T01710080
KRCX - Ladysmith/Rusk, Wisconsin, USA
Distance from station: SW 29mi, 46km
Updated: 06/03/2020 9:15pm
Clear
Clear
 Wind from NNW
Wind: NNW 3 mph , 6 km/h
Temperature: 68°F , 20°C
Dew Point: 46°F , 8°C
Humidity: 46%
Barometer: 29.81 inHg , 1009.5 hPa
Clouds: Clear
Visibility: 10 miles , 16 km
2020/06/04 02:15 KRCX 040215Z AUTO 33003KT 10SM CLR 20/08 A2981 RMK AO2 T02030079
 
KD25 - Manitowish Water, Wisconsin, USA
Distance from station: ENE 41mi, 66km
Updated: 06/03/2020 9:15pm
Clear
Clear
 Wind from calm
Wind: Calm
Temperature: 59°F , 15°C
Dew Point: 48°F , 9°C
Humidity: 68%
Barometer: 29.81 inHg , 1009.5 hPa
Clouds: Clear
Visibility: 10 miles , 16 km
2020/06/04 02:15 KD25 040215Z AUTO 00000KT 10SM CLR 15/09 A2981 RMK AO2 T01460094
KHYR - Hayward, Wisconsin, USA
Distance from station: WNW 42mi, 68km
Updated: 06/01/2020 11:29am
NOT Current
Light thunderstorm, Rain, Mostly cloudy
Light thunderstorm, Rain, Mostly cloudy
 Wind from S
Wind: S 9 mph , 15 km/h
Temperature: 64°F , 18°C
Dew Point: 57°F , 14°C
Humidity: 78%
Barometer: 29.93 inHg , 1013.5 hPa
Summary: Light thunderstorm, Rain
Clouds: Mostly cloudy
Visibility: 8 miles , 13 km
Cloud details: Partly cloudy 2600 ft
Mostly cloudy 9000 ft
Mostly cloudy 12000 ft
2020/06/01 16:29 KHYR 011629Z AUTO 17008KT 8SM -TSRA SCT026 BKN090 BKN120 18/14 A2993 RMK AO2 LTG DSNT W-NE RAB21 P0000 T01780139
 
KARV - Minocqua/Woodruf, Wisconsin, USA
Distance from station: E 44mi, 71km
Updated: 06/03/2020 9:15pm
Clear
Clear
 Wind from calm
Wind: Calm
Temperature: 64°F , 18°C
Dew Point: 50°F , 10°C
Humidity: 60%
Barometer: 29.81 inHg , 1009.5 hPa
Clouds: Clear
Visibility: 10 miles , 16 km
2020/06/04 02:15 KARV 040215Z AUTO 00000KT 10SM CLR 18/10 A2981 RMK AO2 T01800097
KTKV - Tomahawk Regnl, Wisconsin, USA
Distance from station: ESE 46mi, 74km
Updated: 06/03/2020 9:15pm
Clear
Clear
 Wind from calm
Wind: Calm
Temperature: 61°F , 16°C
Dew Point: 48°F , 9°C
Humidity: 63%
Barometer: 29.81 inHg , 1009.5 hPa
Clouds: Clear
Visibility: 10 miles , 16 km
2020/06/04 02:15 KTKV 040215Z AUTO 00000KT 10SM CLR 16/09 A2981 RMK AO2 T01570089 PWINO